Duffield, United Kingdom
Current Conditions -  °F | °C
As of 3:50 AM on Friday 31 Oct 2014 (Local Time) from EGNX Reporting Station
Few Clouds Few Clouds  
Wind Chill: 57°   Ceiling: Unl
Heat Index: 57°   Visibility: 4mi
Dew Point: 55°   Wind: 10mph
Humidity: 94%   Direction: 180°S
Pressure: 29.97"   Gusts: NA
Location:  52.99°N, 1.49°W
Report Text: EGNX 310350Z 18009KT 7000 FEW045 14/13 Q1015
Loading
Personal Weather Stations






























Interactive Weather Map
Tropical Storm Tracking
New forecast layout! Learn more

10-Day Weather Forecast

Advertisements
Track Severe Weather on mobile